Time;durP1;ratioP1;P1;durP2;ratioP2;P2;SDS_P1;SDS_P2;PMS_P1;PMS_P2;Temp;Humidity;BMP_temperature;BMP_pressure;BME280_temperature;BME280_humidity;BME280_pressure;Samples;Min_cycle;Max_cycle;Signal;HPM_P1;HPM_P2
2022/08/10 00:02:36;;;;;;;;;12.00;12.00;;;;;;;;5229089;28;8783;-81
2022/08/10 00:05:07;;;;;;;;;8.75;8.75;;;;;;;;5194480;28;9509;-81
2022/08/10 00:07:38;;;;;;;;;8.75;8.75;;;;;;;;5228988;28;8790;-81
2022/08/10 00:10:10;;;;;;;;;8.50;8.50;;;;;;;;5210925;28;8814;-82
2022/08/10 00:12:42;;;;;;;;;5.50;5.50;;;;;;;;5194338;28;8927;-79
2022/08/10 00:15:14;;;;;;;;;10.25;10.25;;;;;;;;5181349;28;8898;-77
2022/08/10 00:17:45;;;;;;;;;12.25;12.25;;;;;;;;5191383;28;8851;-78
2022/08/10 00:20:16;;;;;;;;;9.75;9.75;;;;;;;;5207627;28;8800;-78
2022/08/10 00:22:47;;;;;;;;;12.00;12.00;;;;;;;;5198229;28;8787;-78
2022/08/10 00:25:18;;;;;;;;;11.00;11.00;;;;;;;;5210729;28;8853;-78
2022/08/10 00:27:49;;;;;;;;;7.00;7.00;;;;;;;;5210281;28;8865;-78
2022/08/10 00:30:38;;;;;;;;;9.25;9.25;;;;;;;;5209785;28;8933;-78
2022/08/10 00:33:27;;;;;;;;;11.50;11.50;;;;;;;;5213664;28;8852;-77
2022/08/10 00:35:58;;;;;;;;;12.00;12.00;;;;;;;;5227242;28;8779;-78
2022/08/10 00:38:29;;;;;;;;;11.00;11.00;;;;;;;;5186635;28;8988;-78
2022/08/10 00:41:18;;;;;;;;;12.25;12.25;;;;;;;;5228236;28;11130;-81
2022/08/10 00:43:49;;;;;;;;;10.75;10.75;;;;;;;;5228297;28;8798;-81
2022/08/10 00:46:20;;;;;;;;;9.25;9.25;;;;;;;;5193232;28;8771;-81
2022/08/10 00:48:51;;;;;;;;;7.67;7.67;;;;;;;;5205600;28;8793;-86
2022/08/10 00:51:22;;;;;;;;;14.50;14.50;;;;;;;;5173550;28;9716;-85
2022/08/10 00:53:53;;;;;;;;;13.50;13.50;;;;;;;;5157577;28;8836;-88
2022/08/10 00:56:25;;;;;;;;;5.75;5.75;;;;;;;;5190247;28;8837;-89
2022/08/10 00:58:56;;;;;;;;;10.25;10.00;;;;;;;;5157612;28;9506;-88
2022/08/10 01:01:46;;;;;;;;;10.00;10.00;;;;;;;;5176188;28;8797;-87
2022/08/10 01:04:17;;;;;;;;;12.00;12.00;;;;;;;;5223456;28;8793;-87
2022/08/10 01:07:06;;;;;;;;;13.25;13.25;;;;;;;;5210277;28;8924;-78
2022/08/10 01:09:47;;;;;;;;;11.75;11.75;;;;;;;;5199152;28;8895;-78
2022/08/10 01:12:31;;;;;;;;;12.75;12.75;;;;;;;;5200546;28;9568;-77
2022/08/10 01:15:05;;;;;;;;;14.00;14.00;;;;;;;;5191209;28;9444;-77
2022/08/10 01:17:39;;;;;;;;;13.00;13.00;;;;;;;;5209787;28;8767;-77
2022/08/10 01:20:17;;;;;;;;;13.00;13.00;;;;;;;;5194037;28;8775;-77
2022/08/10 01:22:48;;;;;;;;;13.25;13.25;;;;;;;;5200951;28;8789;-77
2022/08/10 01:25:34;;;;;;;;;15.00;15.00;;;;;;;;5188673;28;8886;-77
2022/08/10 01:28:05;;;;;;;;;14.25;14.25;;;;;;;;5206370;28;8824;-77
2022/08/10 01:30:36;;;;;;;;;14.00;14.00;;;;;;;;5172326;28;8788;-77
2022/08/10 01:33:09;;;;;;;;;15.50;15.50;;;;;;;;5173207;28;11540;-77
2022/08/10 01:35:44;;;;;;;;;9.25;9.25;;;;;;;;5172047;28;8816;-76
2022/08/10 01:38:39;;;;;;;;;17.00;17.00;;;;;;;;5191239;28;9550;-76
2022/08/10 01:41:18;;;;;;;;;12.75;12.75;;;;;;;;5155776;28;8825;-76
2022/08/10 01:44:09;;;;;;;;;23.00;23.00;;;;;;;;5172725;28;8793;-76
2022/08/10 01:46:47;;;;;;;;;26.75;26.75;;;;;;;;5188417;28;8817;-76
2022/08/10 01:49:20;;;;;;;;;25.25;25.25;;;;;;;;5155829;28;8801;-76
2022/08/10 01:51:54;;;;;;;;;22.75;22.75;;;;;;;;5177790;28;8825;-78
2022/08/10 01:54:26;;;;;;;;;18.25;18.00;;;;;;;;5204316;28;8853;-78
2022/08/10 01:56:58;;;;;;;;;19.75;19.50;;;;;;;;5204917;28;8770;-83
2022/08/10 01:59:33;;;;;;;;;19.75;19.75;;;;;;;;5175507;28;8799;-79
2022/08/10 02:02:06;;;;;;;;;18.75;18.75;;;;;;;;5175986;28;8819;-79
2022/08/10 02:04:39;;;;;;;;;22.50;22.50;;;;;;;;5191953;28;8787;-78
2022/08/10 02:07:12;;;;;;;;;21.25;21.25;;;;;;;;5175449;28;8778;-78
2022/08/10 02:10:03;;;;;;;;;24.50;24.50;;;;;;;;5194590;28;8759;-81
2022/08/10 02:12:35;;;;;;;;;27.75;27.00;;;;;;;;5219347;28;8829;-83
2022/08/10 02:15:15;;;;;;;;;23.50;23.50;;;;;;;;5205207;28;9022;-81
2022/08/10 02:17:54;;;;;;;;;19.00;19.00;;;;;;;;5208083;28;8795;-75
2022/08/10 02:20:29;;;;;;;;;17.75;17.75;;;;;;;;5192144;28;8818;-74
2022/08/10 02:23:03;;;;;;;;;18.75;18.75;;;;;;;;5198941;28;8801;-76
2022/08/10 02:25:35;;;;;;;;;16.00;16.00;;;;;;;;5188497;28;8786;-77
2022/08/10 02:28:26;;;;;;;;;16.50;16.50;;;;;;;;5188496;28;9510;-80
2022/08/10 02:31:00;;;;;;;;;14.50;14.50;;;;;;;;5193011;28;8870;-80
2022/08/10 02:33:33;;;;;;;;;17.50;17.50;;;;;;;;5159501;28;8769;-81
2022/08/10 02:36:08;;;;;;;;;16.50;16.50;;;;;;;;5199150;28;8868;-82
2022/08/10 02:38:43;;;;;;;;;23.00;23.00;;;;;;;;5230095;28;8779;-81
2022/08/10 02:41:51;;;;;;;;;19.25;19.25;;;;;;;;5199856;28;8779;-78
2022/08/10 02:44:25;;;;;;;;;17.00;17.00;;;;;;;;5225776;28;8924;-78
2022/08/10 02:47:03;;;;;;;;;17.75;17.75;;;;;;;;5226911;28;8860;-78
2022/08/10 02:49:48;;;;;;;;;17.50;17.50;;;;;;;;5197337;28;8789;-79
2022/08/10 02:52:26;;;;;;;;;16.75;16.75;;;;;;;;5160228;28;8784;-79
2022/08/10 02:55:10;;;;;;;;;17.50;17.50;;;;;;;;5192557;28;8821;-80
2022/08/10 02:57:47;;;;;;;;;23.25;22.75;;;;;;;;5208287;28;8897;-88
2022/08/10 03:00:19;;;;;;;;;25.25;25.25;;;;;;;;5192504;28;8862;-88
2022/08/10 03:02:51;;;;;;;;;23.00;23.00;;;;;;;;5191769;28;8783;-80
2022/08/10 03:05:22;;;;;;;;;20.50;20.50;;;;;;;;5191340;28;8777;-79
2022/08/10 03:08:00;;;;;;;;;18.25;18.25;;;;;;;;5188543;28;8871;-80
2022/08/10 03:10:35;;;;;;;;;14.00;14.00;;;;;;;;5209842;28;8919;-79
2022/08/10 03:13:08;;;;;;;;;18.75;18.75;;;;;;;;5212122;28;8803;-79
2022/08/10 03:15:40;;;;;;;;;18.25;18.25;;;;;;;;5207389;28;8824;-79
2022/08/10 03:18:11;;;;;;;;;18.75;18.75;;;;;;;;5191556;28;8858;-79
2022/08/10 03:20:43;;;;;;;;;19.50;19.50;;;;;;;;5207818;28;9537;-79
2022/08/10 03:23:20;;;;;;;;;22.50;22.50;;;;;;;;5179460;28;8806;-79
2022/08/10 03:25:54;;;;;;;;;18.00;18.00;;;;;;;;5202947;28;8800;-78
2022/08/10 03:28:44;;;;;;;;;21.00;21.00;;;;;;;;5212022;28;8858;-78
2022/08/10 03:31:16;;;;;;;;;18.00;18.00;;;;;;;;5201563;28;9535;-79
2022/08/10 03:33:47;;;;;;;;;20.00;20.00;;;;;;;;5180621;28;8818;-79
2022/08/10 03:36:37;;;;;;;;;16.00;16.00;;;;;;;;5177620;28;8820;-79
2022/08/10 03:39:08;;;;;;;;;18.75;18.75;;;;;;;;5193167;28;8781;-84
2022/08/10 03:41:42;;;;;;;;;20.00;20.00;;;;;;;;5199562;28;8789;-83
2022/08/10 03:44:17;;;;;;;;;15.50;15.50;;;;;;;;5192741;28;8800;-82
2022/08/10 03:47:13;;;;;;;;;15.00;15.00;;;;;;;;5208222;28;9562;-84
2022/08/10 03:49:46;;;;;;;;;13.50;13.50;;;;;;;;5186640;28;8803;-86
2022/08/10 03:52:18;;;;;;;;;19.00;19.00;;;;;;;;5186836;28;8803;-88
2022/08/10 03:54:52;;;;;;;;;20.00;19.75;;;;;;;;5176171;28;9591;-85
2022/08/10 03:57:42;;;;;;;;;13.25;13.25;;;;;;;;5188634;28;8787;-83
2022/08/10 04:00:17;;;;;;;;;12.50;12.50;;;;;;;;5154209;28;8795;-77
2022/08/10 04:02:48;;;;;;;;;16.50;16.50;;;;;;;;5188346;28;8820;-76
2022/08/10 04:05:19;;;;;;;;;16.50;16.50;;;;;;;;5204466;28;8808;-78
2022/08/10 04:07:50;;;;;;;;;13.00;13.00;;;;;;;;5172139;28;8803;-73
2022/08/10 04:10:21;;;;;;;;;15.00;15.00;;;;;;;;5207372;28;9495;-74
2022/08/10 04:12:52;;;;;;;;;16.33;16.33;;;;;;;;5200892;28;8882;-77
2022/08/10 04:15:23;;;;;;;;;25.00;22.25;;;;;;;;5187140;28;8851;-74
2022/08/10 04:17:55;;;;;;;;;18.50;18.50;;;;;;;;5173053;28;8811;-77
2022/08/10 04:20:28;;;;;;;;;16.75;16.75;;;;;;;;5189377;28;8881;-89
2022/08/10 04:23:02;;;;;;;;;18.75;18.25;;;;;;;;5183320;28;9624;-87
2022/08/10 04:25:34;;;;;;;;;15.50;15.50;;;;;;;;5197653;28;8961;-85
2022/08/10 04:28:08;;;;;;;;;16.00;16.00;;;;;;;;5153549;28;8775;-87
2022/08/10 04:30:40;;;;;;;;;19.75;19.75;;;;;;;;5203761;28;8819;-88
2022/08/10 04:33:14;;;;;;;;;17.00;17.00;;;;;;;;5185922;28;9576;-91
2022/08/10 04:35:46;;;;;;;;;19.00;19.00;;;;;;;;5187147;28;9626;-81
2022/08/10 04:38:37;;;;;;;;;16.50;16.50;;;;;;;;5209172;28;8840;-85
2022/08/10 04:41:09;;;;;;;;;17.25;17.25;;;;;;;;5200748;28;8814;-88
2022/08/10 04:43:40;;;;;;;;;17.75;17.75;;;;;;;;5189123;28;8811;-84
2022/08/10 04:46:11;;;;;;;;;19.25;19.25;;;;;;;;5185990;28;8918;-81
2022/08/10 04:48:42;;;;;;;;;21.00;20.00;;;;;;;;5172364;28;8821;-83
2022/08/10 04:51:15;;;;;;;;;15.00;15.00;;;;;;;;5151442;28;8775;-81
2022/08/10 04:54:04;;;;;;;;;18.25;18.25;;;;;;;;5185800;28;8827;-80
2022/08/10 04:56:36;;;;;;;;;17.50;17.50;;;;;;;;5182642;28;8989;-83
2022/08/10 04:59:08;;;;;;;;;11.00;11.00;;;;;;;;5203873;28;8811;-81
2022/08/10 05:01:39;;;;;;;;;19.00;19.00;;;;;;;;5167694;28;8879;-81
2022/08/10 05:04:11;;;;;;;;;18.00;18.00;;;;;;;;5152842;28;8794;-81
2022/08/10 05:06:42;;;;;;;;;17.00;17.00;;;;;;;;5184280;28;8843;-81
2022/08/10 05:09:13;;;;;;;;;10.00;10.00;;;;;;;;5196371;28;8808;-73
2022/08/10 05:11:44;;;;;;;;;17.25;17.25;;;;;;;;5202084;28;8805;-79
2022/08/10 05:14:15;;;;;;;;;16.75;16.75;;;;;;;;5205283;28;8864;-80
2022/08/10 05:16:46;;;;;;;;;8.00;8.00;;;;;;;;5196735;28;8811;-80
2022/08/10 05:19:17;;;;;;;;;18.75;18.75;;;;;;;;5188486;28;8812;-83
2022/08/10 05:21:49;;;;;;;;;18.00;18.00;;;;;;;;5175316;28;8802;-80
2022/08/10 05:24:20;;;;;;;;;19.75;19.75;;;;;;;;5204257;28;8808;-80
2022/08/10 05:26:52;;;;;;;;;19.75;18.75;;;;;;;;5188456;28;9600;-80
2022/08/10 05:29:23;;;;;;;;;16.00;16.00;;;;;;;;5205089;28;8879;-79
2022/08/10 05:32:13;;;;;;;;;16.25;16.25;;;;;;;;5205860;28;8796;-79
2022/08/10 05:34:44;;;;;;;;;17.00;17.00;;;;;;;;5205710;28;9527;-79
2022/08/10 05:37:15;;;;;;;;;18.00;18.00;;;;;;;;5203906;28;8788;-79
2022/08/10 05:39:47;;;;;;;;;16.75;16.75;;;;;;;;5187584;28;8804;-80
2022/08/10 05:42:20;;;;;;;;;12.67;12.67;;;;;;;;5204483;28;8800;-80
2022/08/10 05:44:51;;;;;;;;;13.50;13.50;;;;;;;;5204817;28;8865;-79
2022/08/10 05:47:22;;;;;;;;;10.50;10.50;;;;;;;;5187440;28;8796;-80
2022/08/10 05:49:54;;;;;;;;;10.75;10.75;;;;;;;;5204504;28;8812;-80
2022/08/10 05:52:25;;;;;;;;;12.50;12.50;;;;;;;;5204098;28;8784;-80
2022/08/10 05:54:56;;;;;;;;;14.75;14.75;;;;;;;;5203875;28;8844;-80
2022/08/10 05:57:27;;;;;;;;;13.50;13.50;;;;;;;;5204099;28;9516;-80
2022/08/10 05:59:59;;;;;;;;;12.75;12.75;;;;;;;;5204274;28;8950;-80
2022/08/10 06:02:32;;;;;;;;;11.75;11.75;;;;;;;;5187832;28;9530;-80
2022/08/10 06:05:07;;;;;;;;;14.00;14.00;;;;;;;;5205551;28;8812;-80
2022/08/10 06:07:54;;;;;;;;;12.75;12.75;;;;;;;;5210911;28;8915;-80
2022/08/10 06:10:27;;;;;;;;;16.00;16.00;;;;;;;;5210677;28;8804;-80
2022/08/10 06:16:26;;;;;;;;;14.25;14.25;;;;;;;;5214808;28;8858;-79
2022/08/10 06:18:57;;;;;;;;;13.25;13.25;;;;;;;;5207213;28;8930;-80
2022/08/10 06:21:47;;;;;;;;;13.25;13.25;;;;;;;;5190341;28;8837;-80
2022/08/10 06:24:22;;;;;;;;;12.50;12.50;;;;;;;;5204252;28;8927;-80
2022/08/10 06:26:53;;;;;;;;;12.75;12.75;;;;;;;;5171378;28;8797;-80
2022/08/10 06:29:25;;;;;;;;;12.00;12.00;;;;;;;;5203742;28;8831;-79
2022/08/10 06:31:57;;;;;;;;;11.75;11.75;;;;;;;;5187653;28;8812;-79
2022/08/10 06:34:34;;;;;;;;;9.50;9.50;;;;;;;;5187675;28;8836;-80
2022/08/10 06:37:06;;;;;;;;;11.00;11.00;;;;;;;;5204001;28;8784;-80
2022/08/10 06:39:56;;;;;;;;;12.75;12.75;;;;;;;;5204044;28;8760;-79
2022/08/10 06:42:30;;;;;;;;;11.50;11.50;;;;;;;;5203842;28;9534;-79
2022/08/10 06:45:06;;;;;;;;;6.00;6.00;;;;;;;;5187302;28;8781;-80
2022/08/10 06:47:43;;;;;;;;;12.00;12.00;;;;;;;;5204234;28;8801;-80
2022/08/10 06:50:20;;;;;;;;;6.25;6.25;;;;;;;;5187604;28;8804;-81
2022/08/10 06:52:54;;;;;;;;;8.50;8.50;;;;;;;;5204092;28;8795;-80
2022/08/10 06:55:32;;;;;;;;;10.00;10.00;;;;;;;;5188181;28;8836;-79
2022/08/10 06:58:04;;;;;;;;;12.25;12.25;;;;;;;;5187438;28;8807;-79
2022/08/10 07:00:54;;;;;;;;;9.75;9.75;;;;;;;;5190192;28;8785;-79
2022/08/10 07:03:31;;;;;;;;;8.75;8.75;;;;;;;;5188056;28;9557;-79
2022/08/10 07:06:04;;;;;;;;;6.00;6.00;;;;;;;;5188291;28;8818;-79
2022/08/10 07:08:36;;;;;;;;;6.00;6.00;;;;;;;;5209105;28;9519;-79
2022/08/10 07:11:08;;;;;;;;;7.50;7.50;;;;;;;;5218246;28;8777;-80
2022/08/10 07:13:41;;;;;;;;;6.75;6.75;;;;;;;;5197797;28;9586;-85
2022/08/10 07:16:14;;;;;;;;;7.00;7.00;;;;;;;;5190900;28;8808;-86
2022/08/10 07:19:05;;;;;;;;;5.50;5.50;;;;;;;;5190420;28;9550;-83
2022/08/10 07:21:38;;;;;;;;;7.00;7.00;;;;;;;;5187460;28;8815;-82
2022/08/10 07:24:11;;;;;;;;;6.00;6.00;;;;;;;;5188553;28;8800;-80
2022/08/10 07:26:52;;;;;;;;;7.25;7.25;;;;;;;;5204994;28;8784;-83
2022/08/10 07:29:30;;;;;;;;;6.00;6.00;;;;;;;;5203934;28;9405;-81
2022/08/10 07:32:02;;;;;;;;;4.00;4.00;;;;;;;;5187811;28;8792;-84
2022/08/10 07:34:35;;;;;;;;;6.75;6.75;;;;;;;;5187382;28;8807;-82
2022/08/10 07:37:25;;;;;;;;;6.50;6.50;;;;;;;;5204299;28;8781;-83
2022/08/10 07:39:58;;;;;;;;;5.25;5.25;;;;;;;;5187332;28;8952;-88
2022/08/10 07:42:31;;;;;;;;;6.75;6.75;;;;;;;;5187753;28;8907;-84
2022/08/10 07:45:03;;;;;;;;;5.50;5.50;;;;;;;;5205214;28;8878;-85
2022/08/10 07:47:54;;;;;;;;;5.75;5.75;;;;;;;;5203894;28;8797;-85
2022/08/10 07:50:31;;;;;;;;;6.25;6.25;;;;;;;;5204519;28;8792;-85
2022/08/10 07:53:02;;;;;;;;;6.50;6.25;;;;;;;;5188603;28;8854;-84
2022/08/10 07:55:34;;;;;;;;;4.75;4.75;;;;;;;;5205450;28;9547;-83
2022/08/10 07:58:06;;;;;;;;;6.50;6.50;;;;;;;;5192033;28;8792;-84
2022/08/10 08:00:39;;;;;;;;;6.25;6.25;;;;;;;;5209128;28;8797;-84
2022/08/10 08:03:19;;;;;;;;;4.25;4.25;;;;;;;;5212596;28;8903;-84
2022/08/10 08:05:51;;;;;;;;;5.75;5.75;;;;;;;;5199733;28;8804;-85
2022/08/10 08:08:42;;;;;;;;;5.00;5.00;;;;;;;;5214577;28;8797;-86
2022/08/10 08:11:14;;;;;;;;;5.00;5.00;;;;;;;;5213846;28;8816;-85
2022/08/10 08:13:46;;;;;;;;;4.75;4.75;;;;;;;;5195698;28;8879;-85
2022/08/10 08:16:18;;;;;;;;;6.50;6.50;;;;;;;;5195538;28;8835;-86
2022/08/10 08:18:53;;;;;;;;;3.25;3.25;;;;;;;;5193105;28;9519;-85
2022/08/10 08:21:24;;;;;;;;;1.50;1.50;;;;;;;;5192736;28;8793;-85
2022/08/10 08:23:55;;;;;;;;;3.00;3.00;;;;;;;;5208007;28;8796;-85
2022/08/10 08:26:27;;;;;;;;;3.00;3.00;;;;;;;;5174685;28;8809;-85
2022/08/10 08:28:59;;;;;;;;;2.75;2.75;;;;;;;;5191345;28;9531;-84
2022/08/10 08:31:31;;;;;;;;;3.25;3.25;;;;;;;;5206591;28;8795;-84
2022/08/10 08:34:03;;;;;;;;;2.75;2.75;;;;;;;;5191630;28;8796;-84
2022/08/10 08:36:35;;;;;;;;;4.00;4.00;;;;;;;;5207080;28;8784;-85
2022/08/10 08:39:06;;;;;;;;;2.50;2.50;;;;;;;;5189915;28;8776;-83
2022/08/10 08:41:40;;;;;;;;;2.50;2.50;;;;;;;;5206406;28;8831;-82
2022/08/10 08:44:22;;;;;;;;;2.50;2.50;;;;;;;;5206236;28;8807;-84
2022/08/10 08:46:59;;;;;;;;;3.25;3.25;;;;;;;;5189915;28;8804;-84
2022/08/10 08:49:46;;;;;;;;;4.00;4.00;;;;;;;;5190227;28;8889;-84
2022/08/10 08:52:50;;;;;;;;;3.50;3.50;;;;;;;;5189447;28;9512;-85
2022/08/10 08:56:00;;;;;;;;;4.00;4.00;;;;;;;;5151491;28;8809;-84
2022/08/10 08:59:01;;;;;;;;;4.00;4.00;;;;;;;;5185221;28;8801;-83
2022/08/10 09:01:44;;;;;;;;;6.00;6.00;;;;;;;;5151926;28;8792;-85
2022/08/10 09:04:36;;;;;;;;;7.00;7.00;;;;;;;;5199279;28;8819;-85
2022/08/10 09:07:16;;;;;;;;;17.25;16.50;;;;;;;;5189366;28;9555;-84
2022/08/10 09:09:57;;;;;;;;;15.25;15.00;;;;;;;;5189713;28;8811;-85
2022/08/10 09:12:31;;;;;;;;;6.25;6.25;;;;;;;;5206095;28;8942;-84
2022/08/10 09:15:28;;;;;;;;;5.00;5.00;;;;;;;;5206078;28;8820;-85
2022/08/10 09:18:20;;;;;;;;;3.25;3.25;;;;;;;;5189970;28;8903;-83
2022/08/10 09:21:22;;;;;;;;;6.25;6.25;;;;;;;;5207125;28;8803;-85
2022/08/10 09:23:55;;;;;;;;;4.00;4.00;;;;;;;;5207119;28;8807;-84
2022/08/10 09:26:56;;;;;;;;;2.25;2.25;;;;;;;;5207149;28;8800;-84
2022/08/10 09:29:38;;;;;;;;;3.00;3.00;;;;;;;;5186473;28;8776;-83
2022/08/10 09:32:20;;;;;;;;;7.25;7.25;;;;;;;;5206992;28;8780;-84
2022/08/10 09:34:53;;;;;;;;;6.00;6.00;;;;;;;;5191902;28;9600;-84
2022/08/10 09:38:01;;;;;;;;;9.25;9.25;;;;;;;;5205883;28;8792;-85
2022/08/10 09:40:35;;;;;;;;;7.00;7.00;;;;;;;;5189256;28;8772;-84
2022/08/10 09:43:37;;;;;;;;;5.75;5.75;;;;;;;;5206151;28;8772;-85
2022/08/10 09:46:47;;;;;;;;;5.00;4.75;;;;;;;;5192597;28;8809;-84
2022/08/10 09:49:43;;;;;;;;;3.75;3.75;;;;;;;;5206120;28;8800;-84
2022/08/10 09:53:04;;;;;;;;;6.50;6.00;;;;;;;;5206084;28;8859;-84
2022/08/10 09:56:12;;;;;;;;;4.25;4.25;;;;;;;;5192720;28;8796;-85
2022/08/10 09:58:49;;;;;;;;;8.50;8.50;;;;;;;;5190497;28;8910;-83
2022/08/10 10:01:26;;;;;;;;;2.25;2.25;;;;;;;;5195004;28;8788;-86
2022/08/10 10:04:05;;;;;;;;;6.00;6.00;;;;;;;;5192119;28;8820;-84
2022/08/10 10:07:03;;;;;;;;;4.50;4.50;;;;;;;;5193299;28;8781;-83
2022/08/10 10:10:07;;;;;;;;;9.25;9.25;;;;;;;;5226337;28;8789;-83
2022/08/10 10:12:59;;;;;;;;;5.25;5.25;;;;;;;;5229927;28;8785;-84
2022/08/10 10:15:33;;;;;;;;;7.00;7.00;;;;;;;;5229622;28;8836;-85
2022/08/10 10:18:17;;;;;;;;;9.00;9.00;;;;;;;;5202665;28;8796;-83
2022/08/10 10:20:58;;;;;;;;;7.00;7.00;;;;;;;;5208802;28;9447;-83
2022/08/10 10:23:47;;;;;;;;;7.00;7.00;;;;;;;;5189988;28;8801;-85
2022/08/10 10:26:36;;;;;;;;;7.75;7.75;;;;;;;;5173686;28;8793;-88
2022/08/10 10:29:37;;;;;;;;;5.25;5.25;;;;;;;;5210330;28;8793;-89
2022/08/10 10:32:46;;;;;;;;;6.25;6.25;;;;;;;;5208131;28;8788;-89
2022/08/10 10:35:44;;;;;;;;;6.25;6.25;;;;;;;;5187217;28;8808;-89
2022/08/10 10:38:28;;;;;;;;;6.00;6.00;;;;;;;;5182360;28;8793;-89
2022/08/10 10:41:05;;;;;;;;;11.00;11.00;;;;;;;;5229925;28;8769;-87
2022/08/10 10:43:40;;;;;;;;;6.25;6.25;;;;;;;;5227780;28;9029;-88
2022/08/10 10:46:35;;;;;;;;;8.00;8.00;;;;;;;;5218210;28;8867;-89
2022/08/10 10:50:04;;;;;;;;;5.50;5.50;;;;;;;;5199692;28;8781;-88
2022/08/10 10:53:10;;;;;;;;;13.50;13.50;;;;;;;;5210448;28;8896;-90
2022/08/10 10:55:44;;;;;;;;;23.75;23.75;;;;;;;;5138549;28;8803;-87
2022/08/10 10:58:42;;;;;;;;;6.50;6.50;;;;;;;;5156144;28;8791;-88
2022/08/10 11:01:37;;;;;;;;;5.00;5.00;;;;;;;;5206698;28;8797;-88
2022/08/10 11:04:16;;;;;;;;;6.75;6.75;;;;;;;;5207160;28;8850;-89
2022/08/10 11:07:09;;;;;;;;;7.50;7.50;;;;;;;;5208892;28;8954;-89
2022/08/10 11:09:40;;;;;;;;;2.25;2.25;;;;;;;;5192147;28;9479;-88
2022/08/10 11:12:30;;;;;;;;;17.00;16.33;;;;;;;;5190949;28;8812;-87
2022/08/10 11:15:10;;;;;;;;;8.50;8.50;;;;;;;;5213387;28;10176;-88
2022/08/10 11:18:00;;;;;;;;;3.00;3.00;;;;;;;;5198150;28;8779;-89
2022/08/10 11:21:12;;;;;;;;;11.25;11.25;;;;;;;;5200476;28;8783;-89
2022/08/10 11:23:51;;;;;;;;;6.75;6.75;;;;;;;;5196710;28;8794;-90
2022/08/10 11:26:27;;;;;;;;;4.00;4.00;;;;;;;;5231192;28;8790;-89
2022/08/10 11:29:36;;;;;;;;;3.50;3.50;;;;;;;;5199103;28;8809;-90
2022/08/10 11:32:52;;;;;;;;;24.25;23.50;;;;;;;;5202948;28;8779;-91
2022/08/10 11:35:43;;;;;;;;;4.25;4.25;;;;;;;;5193311;28;8841;-91
2022/08/10 11:38:41;;;;;;;;;26.75;26.75;;;;;;;;5169525;28;8817;-87
2022/08/10 11:41:27;;;;;;;;;6.25;6.25;;;;;;;;5199424;28;8783;-89
2022/08/10 11:44:21;;;;;;;;;1.75;1.50;;;;;;;;5197346;28;8787;-88
2022/08/10 11:47:14;;;;;;;;;3.50;3.50;;;;;;;;5192904;28;8856;-89
2022/08/10 11:50:03;;;;;;;;;2.50;2.50;;;;;;;;5215946;28;8861;-89
2022/08/10 11:52:40;;;;;;;;;1.50;1.50;;;;;;;;5216756;28;8849;-89
2022/08/10 11:55:30;;;;;;;;;1.50;1.50;;;;;;;;5201194;28;8810;-88
2022/08/10 12:01:01;;;;;;;;;3.25;3.25;;;;;;;;5201684;28;8852;-87
2022/08/10 12:03:32;;;;;;;;;3.25;3.25;;;;;;;;5180152;28;8787;-88
2022/08/10 12:06:07;;;;;;;;;0.50;0.50;;;;;;;;5196322;28;8860;-88
2022/08/10 12:08:56;;;;;;;;;2.25;2.25;;;;;;;;5214341;28;8884;-88
2022/08/10 12:11:28;;;;;;;;;3.00;3.00;;;;;;;;5230582;28;8811;-89
2022/08/10 12:13:59;;;;;;;;;4.75;4.75;;;;;;;;5178539;28;11341;-88
2022/08/10 12:16:32;;;;;;;;;8.25;8.25;;;;;;;;5195096;28;8807;-88
2022/08/10 12:19:07;;;;;;;;;2.50;2.50;;;;;;;;5211231;28;8759;-88
2022/08/10 12:21:41;;;;;;;;;3.00;3.00;;;;;;;;5211099;28;8789;-88
2022/08/10 12:24:22;;;;;;;;;2.50;2.50;;;;;;;;5195023;28;8783;-90
2022/08/10 12:27:06;;;;;;;;;35.20;32.00;;;;;;;;5195416;28;8802;-88
2022/08/10 12:30:00;;;;;;;;;2.50;2.50;;;;;;;;5197733;28;9481;-89
2022/08/10 12:32:40;;;;;;;;;1.00;1.00;;;;;;;;5211721;28;8806;-90
2022/08/10 12:35:49;;;;;;;;;3.00;3.00;;;;;;;;5197083;28;8807;-90
2022/08/10 12:38:30;;;;;;;;;0.75;0.75;;;;;;;;5195520;28;8803;-88
2022/08/10 12:41:07;;;;;;;;;1.25;1.25;;;;;;;;5178204;28;8846;-88
2022/08/10 12:43:45;;;;;;;;;1.00;1.00;;;;;;;;5230073;28;8825;-88
2022/08/10 12:46:31;;;;;;;;;0.75;0.75;;;;;;;;5216478;28;8803;-88
2022/08/10 12:49:21;;;;;;;;;1.00;1.00;;;;;;;;5215969;28;8810;-88
2022/08/10 12:52:01;;;;;;;;;35.50;29.50;;;;;;;;5217477;28;8791;-90
2022/08/10 12:54:40;;;;;;;;;14.33;14.33;;;;;;;;5217464;28;8904;-89
2022/08/10 12:57:23;;;;;;;;;6.00;6.00;;;;;;;;5219866;28;8779;-88
2022/08/10 12:59:56;;;;;;;;;0.00;0.00;;;;;;;;5216822;28;8775;-90
2022/08/10 13:02:37;;;;;;;;;1.00;1.00;;;;;;;;5217281;28;8794;-89
2022/08/10 13:05:13;;;;;;;;;1.50;1.50;;;;;;;;5217966;28;8821;-89
2022/08/10 13:07:45;;;;;;;;;32.75;30.75;;;;;;;;5200387;28;8783;-88
2022/08/10 13:10:17;;;;;;;;;8.50;8.50;;;;;;;;5235021;28;8767;-88
2022/08/10 13:12:53;;;;;;;;;4.00;4.00;;;;;;;;5214357;28;9028;-88
2022/08/10 13:15:30;;;;;;;;;3.00;2.50;;;;;;;;5232127;28;8818;-88
2022/08/10 13:18:07;;;;;;;;;2.25;2.25;;;;;;;;5197425;28;8815;-87
2022/08/10 13:20:39;;;;;;;;;3.50;3.50;;;;;;;;5176550;28;8791;-88
2022/08/10 13:23:12;;;;;;;;;0.00;0.00;;;;;;;;5193143;28;8917;-88
2022/08/10 13:25:49;;;;;;;;;3.25;3.25;;;;;;;;5195325;28;8806;-88
2022/08/10 13:28:44;;;;;;;;;3.50;3.50;;;;;;;;5201151;28;8775;-88
2022/08/10 13:31:20;;;;;;;;;2.00;2.00;;;;;;;;5198689;28;8779;-87
2022/08/10 13:34:03;;;;;;;;;8.00;8.00;;;;;;;;5215274;28;8791;-86
2022/08/10 13:40:10;;;;;;;;;4.25;4.25;;;;;;;;5213992;28;8822;-88
2022/08/10 13:43:07;;;;;;;;;1.00;1.00;;;;;;;;5199292;28;8790;-86
2022/08/10 13:45:45;;;;;;;;;2.00;2.00;;;;;;;;5214324;28;8901;-85
2022/08/10 13:48:21;;;;;;;;;2.50;2.50;;;;;;;;5181922;28;8806;-86
2022/08/10 13:51:11;;;;;;;;;0.50;0.50;;;;;;;;5214765;28;8791;-86
2022/08/10 13:54:07;;;;;;;;;1.50;1.50;;;;;;;;5211462;28;8822;-84
2022/08/10 13:56:40;;;;;;;;;7.25;7.25;;;;;;;;5186339;28;8834;-85
2022/08/10 13:59:14;;;;;;;;;2.00;2.00;;;;;;;;5178604;28;8791;-85
2022/08/10 14:01:49;;;;;;;;;2.50;2.50;;;;;;;;5180198;28;8779;-87
2022/08/10 14:04:23;;;;;;;;;13.25;13.25;;;;;;;;5207797;28;8857;-86
2022/08/10 14:06:58;;;;;;;;;6.25;6.25;;;;;;;;5219206;28;8905;-87
2022/08/10 14:09:31;;;;;;;;;3.25;3.25;;;;;;;;5229226;28;8792;-85
2022/08/10 14:12:02;;;;;;;;;12.50;12.50;;;;;;;;5211635;28;8827;-87
2022/08/10 14:14:34;;;;;;;;;10.75;9.50;;;;;;;;5189717;28;8818;-86
2022/08/10 14:17:06;;;;;;;;;6.25;6.25;;;;;;;;5183335;28;8824;-86
2022/08/10 14:19:56;;;;;;;;;2.00;2.00;;;;;;;;5204733;28;8809;-85
2022/08/10 14:22:27;;;;;;;;;2.00;2.00;;;;;;;;5202692;28;9526;-86
2022/08/10 14:25:09;;;;;;;;;4.75;4.75;;;;;;;;5178352;28;8832;-86
2022/08/10 14:27:59;;;;;;;;;2.00;2.00;;;;;;;;5207919;28;8804;-85
2022/08/10 14:31:01;;;;;;;;;13.75;13.75;;;;;;;;5193645;28;8875;-84
2022/08/10 14:33:34;;;;;;;;;4.00;4.00;;;;;;;;5207893;28;8903;-86
2022/08/10 14:36:07;;;;;;;;;1.00;1.00;;;;;;;;5174345;28;8890;-86
2022/08/10 14:38:43;;;;;;;;;53.80;45.40;;;;;;;;5199608;28;8803;-90
2022/08/10 14:41:20;;;;;;;;;68.60;61.40;;;;;;;;5185898;28;8822;-84
2022/08/10 14:43:59;;;;;;;;;7.00;7.00;;;;;;;;5184748;28;9550;-86
2022/08/10 14:46:32;;;;;;;;;13.50;13.50;;;;;;;;5162001;28;8829;-85
2022/08/10 14:49:04;;;;;;;;;2.00;2.00;;;;;;;;5188303;28;8877;-79
2022/08/10 14:51:40;;;;;;;;;1.75;1.75;;;;;;;;5185406;28;8841;-86
2022/08/10 14:54:14;;;;;;;;;0.50;0.50;;;;;;;;5189922;28;8787;-89
2022/08/10 14:56:45;;;;;;;;;6.25;6.25;;;;;;;;5187670;28;8835;-84
2022/08/10 14:59:18;;;;;;;;;9.00;9.00;;;;;;;;5217240;28;8792;-78
2022/08/10 15:01:56;;;;;;;;;7.00;7.00;;;;;;;;5175945;28;8815;-85
2022/08/10 15:04:32;;;;;;;;;24.50;24.50;;;;;;;;5198671;28;8775;-86
2022/08/10 15:07:10;;;;;;;;;19.75;19.75;;;;;;;;5203390;28;8813;-87
2022/08/10 15:09:52;;;;;;;;;57.20;47.40;;;;;;;;5180278;28;8791;-86
2022/08/10 15:12:23;;;;;;;;;40.25;33.75;;;;;;;;5192238;28;8834;-79
2022/08/10 15:14:57;;;;;;;;;48.25;40.25;;;;;;;;5189905;28;8845;-82
2022/08/10 15:17:33;;;;;;;;;25.00;24.25;;;;;;;;5188127;28;8813;-82
2022/08/10 15:20:15;;;;;;;;;25.50;25.50;;;;;;;;5156597;28;8795;-81
2022/08/10 15:22:47;;;;;;;;;22.75;21.75;;;;;;;;5188781;28;8829;-83
2022/08/10 15:25:20;;;;;;;;;11.75;11.75;;;;;;;;5173791;28;8977;-85
2022/08/10 15:28:01;;;;;;;;;7.75;7.75;;;;;;;;5193772;28;9488;-86
2022/08/10 15:30:38;;;;;;;;;9.00;9.00;;;;;;;;5192492;28;8796;-82
2022/08/10 15:39:32;;;;;;;;;12.50;12.50;;;;;;;;5204150;28;8990;-86
2022/08/10 15:42:09;;;;;;;;;10.50;10.50;;;;;;;;5172160;28;8949;-77
2022/08/10 15:44:41;;;;;;;;;13.50;13.50;;;;;;;;5187652;28;8807;-79
2022/08/10 15:47:29;;;;;;;;;10.50;10.50;;;;;;;;5222193;28;8927;-83
2022/08/10 15:50:04;;;;;;;;;19.00;18.50;;;;;;;;5229448;28;8789;-81
2022/08/10 15:52:47;;;;;;;;;13.25;13.25;;;;;;;;5228303;28;8798;-81
2022/08/10 15:55:22;;;;;;;;;10.50;10.50;;;;;;;;5228527;28;8857;-82
2022/08/10 15:58:15;;;;;;;;;9.50;9.50;;;;;;;;5232291;28;8774;-83
2022/08/10 16:01:03;;;;;;;;;14.50;14.50;;;;;;;;5217324;28;8774;-85
2022/08/10 16:04:05;;;;;;;;;7.50;7.50;;;;;;;;5229049;28;8809;-83
2022/08/10 16:06:45;;;;;;;;;6.75;6.75;;;;;;;;5230557;28;8839;-85
2022/08/10 16:10:05;;;;;;;;;5.25;5.25;;;;;;;;5233883;28;8785;-81
2022/08/10 16:12:41;;;;;;;;;7.75;7.75;;;;;;;;5196196;28;8873;-78